createdAt,value
2019-03-09T00:01:13.831Z,7.82
2019-03-09T00:02:48.116Z,7.80
2019-03-09T00:04:22.967Z,7.82
2019-03-09T00:05:57.274Z,7.80
2019-03-09T00:07:31.544Z,7.77
2019-03-09T00:09:07.594Z,7.74
2019-03-09T00:10:42.151Z,7.72
2019-03-09T00:12:16.348Z,7.75
2019-03-09T00:13:50.546Z,7.75
2019-03-09T00:15:24.811Z,7.76
2019-03-09T00:16:59.414Z,7.75
2019-03-09T00:18:33.684Z,7.75
2019-03-09T00:20:09.090Z,7.72
2019-03-09T00:21:43.317Z,7.70
2019-03-09T00:23:28.518Z,7.66
2019-03-09T00:25:04.357Z,7.63
2019-03-09T00:26:40.232Z,7.61
2019-03-09T00:28:16.501Z,7.59
2019-03-09T00:29:52.802Z,7.58
2019-03-09T00:31:34.683Z,7.56
2019-03-09T00:33:08.888Z,7.52
2019-03-09T00:34:43.178Z,7.49
2019-03-09T00:36:17.852Z,7.48
2019-03-09T00:37:53.673Z,7.48
2019-03-09T00:39:28.309Z,7.48
2019-03-09T00:41:02.694Z,7.42
2019-03-09T00:42:37.196Z,7.39
2019-03-09T00:44:11.474Z,7.36
2019-03-09T00:45:45.826Z,7.32
2019-03-09T00:47:19.837Z,7.24
2019-03-09T00:48:54.485Z,7.15
2019-03-09T00:50:28.778Z,7.09
2019-03-09T00:52:03.200Z,7.04
2019-03-09T00:53:37.416Z,7.02
2019-03-09T00:55:13.465Z,7.01
2019-03-09T00:56:47.687Z,7.00
2019-03-09T00:58:21.946Z,7.00
2019-03-09T00:59:57.468Z,7.02
2019-03-09T01:01:32.050Z,7.07
2019-03-09T01:03:06.345Z,7.10
2019-03-09T01:04:40.564Z,7.14
2019-03-09T01:06:14.829Z,7.16
2019-03-09T01:07:49.490Z,7.15
2019-03-09T01:09:23.803Z,7.17
2019-03-09T01:10:58.098Z,7.20
2019-03-09T01:12:32.390Z,7.19
2019-03-09T01:14:07.252Z,7.18
2019-03-09T01:15:40.930Z,7.19
2019-03-09T01:17:15.162Z,7.17
2019-03-09T01:18:49.481Z,7.12
2019-03-09T01:20:24.397Z,7.01
2019-03-09T01:21:58.731Z,6.93
2019-03-09T01:23:33.070Z,6.83
2019-03-09T01:25:11.450Z,6.82
2019-03-09T01:26:46.022Z,6.83
2019-03-09T01:28:20.325Z,6.78
2019-03-09T01:29:54.510Z,6.79
2019-03-09T01:31:28.741Z,6.76
2019-03-09T01:33:04.713Z,6.75
2019-03-09T01:34:38.923Z,6.76
2019-03-09T01:36:13.186Z,6.77
2019-03-09T01:37:47.387Z,6.77
2019-03-09T01:39:30.922Z,6.81
2019-03-09T01:41:05.175Z,6.83
2019-03-09T01:42:39.430Z,6.83
2019-03-09T01:44:13.160Z,6.82
2019-03-09T01:45:48.027Z,6.82
2019-03-09T01:47:22.292Z,6.84
2019-03-09T01:48:56.570Z,6.83
2019-03-09T01:50:30.788Z,6.83
2019-03-09T01:52:05.557Z,6.85
2019-03-09T01:53:39.234Z,6.84
2019-03-09T01:55:14.231Z,6.83
2019-03-09T01:56:48.493Z,6.84
2019-03-09T01:58:23.135Z,6.80
2019-03-09T01:59:57.887Z,6.76
2019-03-09T02:01:32.451Z,6.69
2019-03-09T02:03:06.757Z,6.63
2019-03-09T02:04:41.478Z,6.58
2019-03-09T02:06:15.748Z,6.53
2019-03-09T02:07:49.987Z,6.49
2019-03-09T02:09:24.307Z,6.48
2019-03-09T02:10:59.026Z,6.49
2019-03-09T02:12:33.342Z,6.51
2019-03-09T02:14:07.546Z,6.53
2019-03-09T02:15:42.534Z,6.53
2019-03-09T02:17:17.308Z,6.53
2019-03-09T02:18:51.520Z,6.50
2019-03-09T02:20:25.225Z,6.47
2019-03-09T02:21:59.510Z,6.46
2019-03-09T02:23:34.142Z,6.44
2019-03-09T02:25:09.633Z,6.43
2019-03-09T02:26:43.990Z,6.44
2019-03-09T02:28:18.345Z,6.45
2019-03-09T02:29:53.227Z,6.46
2019-03-09T02:31:27.991Z,6.47
2019-03-09T02:33:02.623Z,6.49
2019-03-09T02:34:36.887Z,6.50
2019-03-09T02:36:13.243Z,6.53
2019-03-09T02:37:47.477Z,6.56
2019-03-09T02:39:26.497Z,6.57
2019-03-09T02:41:00.783Z,6.47
2019-03-09T02:42:35.285Z,6.34
2019-03-09T02:44:09.577Z,6.23
2019-03-09T02:45:43.877Z,6.14
2019-03-09T02:47:18.693Z,6.10
2019-03-09T02:48:53.344Z,6.07
2019-03-09T02:50:27.617Z,6.07
2019-03-09T02:52:01.830Z,6.08
2019-03-09T02:53:36.205Z,6.12
2019-03-09T02:55:14.797Z,6.15
2019-03-09T02:56:49.017Z,6.19
2019-03-09T02:58:23.406Z,6.21
2019-03-09T02:59:57.774Z,6.24
2019-03-09T03:01:39.438Z,6.22
2019-03-09T03:03:13.904Z,6.20
2019-03-09T03:04:49.045Z,6.17
2019-03-09T03:06:23.274Z,6.17
2019-03-09T03:07:57.981Z,6.15
2019-03-09T03:09:32.231Z,6.15
2019-03-09T03:11:06.500Z,6.15
2019-03-09T03:12:40.682Z,6.17
2019-03-09T03:14:15.226Z,6.17
2019-03-09T03:15:49.547Z,6.17
2019-03-09T03:17:23.759Z,6.16
2019-03-09T03:18:58.283Z,6.12
2019-03-09T03:20:32.778Z,6.09
2019-03-09T03:22:07.056Z,6.04
2019-03-09T03:23:41.313Z,6.05
2019-03-09T03:25:15.602Z,6.06
2019-03-09T03:26:50.102Z,6.04
2019-03-09T03:28:24.359Z,6.06
2019-03-09T03:29:58.634Z,6.07
2019-03-09T03:31:32.850Z,6.05
2019-03-09T03:33:07.558Z,6.03
2019-03-09T03:34:41.800Z,6.03
2019-03-09T03:36:16.030Z,6.00
2019-03-09T03:37:50.326Z,5.93
2019-03-09T03:39:24.813Z,5.91
2019-03-09T03:40:58.531Z,5.89
2019-03-09T03:42:32.726Z,5.88
2019-03-09T03:44:07.045Z,5.90
2019-03-09T03:45:41.752Z,5.94
2019-03-09T03:47:16.058Z,5.95
2019-03-09T03:48:50.305Z,5.98
2019-03-09T03:50:24.583Z,6.01
2019-03-09T03:51:59.098Z,6.01
2019-03-09T03:53:33.401Z,6.03
2019-03-09T03:55:09.645Z,6.03
2019-03-09T03:56:43.855Z,6.03
2019-03-09T03:58:19.415Z,6.04
2019-03-09T03:59:53.693Z,6.02
2019-03-09T04:01:27.895Z,6.01
2019-03-09T04:03:02.208Z,6.02
2019-03-09T04:04:37.230Z,6.04
2019-03-09T04:06:11.912Z,6.04
2019-03-09T04:07:46.192Z,6.03
2019-03-09T04:09:20.821Z,5.98
2019-03-09T04:10:55.454Z,5.95
2019-03-09T04:12:30.178Z,5.93
2019-03-09T04:14:04.565Z,5.89
2019-03-09T04:15:38.940Z,5.87
2019-03-09T04:17:13.486Z,5.86
2019-03-09T04:18:47.784Z,5.88
2019-03-09T04:20:22.400Z,5.92
2019-03-09T04:21:56.660Z,5.94
2019-03-09T04:23:31.251Z,5.96
2019-03-09T04:25:07.036Z,5.96
2019-03-09T04:26:41.319Z,5.95
2019-03-09T04:28:15.006Z,5.96
2019-03-09T04:29:49.386Z,5.97
2019-03-09T04:31:23.118Z,5.98
2019-03-09T04:32:56.827Z,5.99
2019-03-09T04:34:31.324Z,6.00
2019-03-09T04:36:05.932Z,6.01
2019-03-09T04:37:40.304Z,6.04
2019-03-09T04:39:13.922Z,6.08
2019-03-09T04:40:48.245Z,6.07
2019-03-09T04:42:23.113Z,6.08
2019-03-09T04:43:57.460Z,6.04
2019-03-09T04:45:31.674Z,5.92
2019-03-09T04:47:05.848Z,5.81
2019-03-09T04:48:40.419Z,5.76
2019-03-09T04:50:15.336Z,5.70
2019-03-09T04:51:50.496Z,5.65
2019-03-09T04:53:24.750Z,5.63
2019-03-09T04:54:58.709Z,5.62
2019-03-09T04:56:32.934Z,5.59
2019-03-09T04:58:07.275Z,5.56
2019-03-09T04:59:41.483Z,5.55
2019-03-09T05:01:16.374Z,5.58
2019-03-09T05:02:50.600Z,5.60
2019-03-09T05:04:33.202Z,5.65
2019-03-09T05:06:07.518Z,5.71
2019-03-09T05:07:47.670Z,5.75
2019-03-09T05:09:41.524Z,5.79
2019-03-09T05:11:15.841Z,5.87
2019-03-09T05:12:53.506Z,5.89
2019-03-09T05:14:27.825Z,5.95
2019-03-09T05:16:02.091Z,6.03
2019-03-09T05:17:36.329Z,6.10
2019-03-09T05:19:10.949Z,6.19
2019-03-09T05:20:45.259Z,6.23
2019-03-09T05:22:19.516Z,6.22
2019-03-09T05:23:54.166Z,6.27
2019-03-09T05:25:28.712Z,6.32
2019-03-09T05:27:02.934Z,6.42
2019-03-09T05:28:37.199Z,6.43
2019-03-09T05:30:40.472Z,6.46
2019-03-09T05:32:14.152Z,6.50
2019-03-09T05:33:48.404Z,6.61
2019-03-09T05:35:22.642Z,6.74
2019-03-09T05:36:57.142Z,6.75
2019-03-09T05:38:30.905Z,6.86
2019-03-09T05:40:07.224Z,6.97
2019-03-09T05:41:41.501Z,7.13
2019-03-09T05:43:16.300Z,7.38
2019-03-09T05:44:50.487Z,7.58
2019-03-09T05:46:24.708Z,7.73
2019-03-09T05:47:58.921Z,7.84
2019-03-09T05:49:33.688Z,8.03
2019-03-09T05:51:07.888Z,8.26
2019-03-09T05:52:42.106Z,8.49
2019-03-09T05:54:16.315Z,8.53
2019-03-09T05:55:51.128Z,8.49
2019-03-09T05:57:25.345Z,8.60
2019-03-09T05:58:59.643Z,8.66
2019-03-09T06:00:35.052Z,8.72
2019-03-09T06:02:09.891Z,8.83
2019-03-09T06:03:44.134Z,8.87
2019-03-09T06:05:30.017Z,8.92
2019-03-09T06:07:04.237Z,8.99
2019-03-09T06:08:38.827Z,9.09
2019-03-09T06:10:13.127Z,9.09
2019-03-09T06:11:48.186Z,9.10
2019-03-09T06:13:22.444Z,9.20
2019-03-09T06:14:56.995Z,9.32
2019-03-09T06:16:31.236Z,9.48
2019-03-09T06:18:06.434Z,9.68
2019-03-09T06:19:40.944Z,9.86
2019-03-09T06:21:15.592Z,9.99
2019-03-09T06:22:49.908Z,10.03
2019-03-09T06:24:24.154Z,10.13
2019-03-09T06:25:58.365Z,10.24
2019-03-09T06:27:33.013Z,10.35
2019-03-09T06:29:07.289Z,10.50
2019-03-09T06:30:41.584Z,10.65
2019-03-09T06:32:34.310Z,10.81
2019-03-09T06:34:08.588Z,10.95
2019-03-09T06:35:42.908Z,11.22
2019-03-09T06:37:20.266Z,11.51
2019-03-09T06:39:00.301Z,11.42
2019-03-09T06:40:34.515Z,11.46
2019-03-09T06:42:20.508Z,11.55
2019-03-09T06:43:55.146Z,11.57
2019-03-09T06:45:29.743Z,11.47
2019-03-09T06:47:03.953Z,11.42
2019-03-09T06:48:38.305Z,11.37
2019-03-09T06:50:14.652Z,11.54
2019-03-09T06:51:49.249Z,11.73
2019-03-09T06:53:23.710Z,11.86
2019-03-09T06:54:57.961Z,12.03
2019-03-09T06:56:32.276Z,12.17
2019-03-09T06:58:06.823Z,12.20
2019-03-09T06:59:41.373Z,12.23
2019-03-09T07:01:18.909Z,12.42
2019-03-09T07:02:53.206Z,12.62
2019-03-09T07:04:27.832Z,12.88
2019-03-09T07:06:02.085Z,13.11
2019-03-09T07:07:36.375Z,13.25
2019-03-09T07:09:10.588Z,13.44
2019-03-09T07:10:45.065Z,13.65
2019-03-09T07:12:19.315Z,13.87
2019-03-09T07:13:53.610Z,14.00
2019-03-09T07:15:30.110Z,14.04
2019-03-09T07:17:04.766Z,14.02
2019-03-09T07:18:40.614Z,14.02
2019-03-09T07:20:14.822Z,14.06
2019-03-09T07:21:49.060Z,14.16
2019-03-09T07:23:23.892Z,14.27
2019-03-09T07:24:58.218Z,14.37
2019-03-09T07:26:32.502Z,14.45
2019-03-09T07:28:14.430Z,14.53
2019-03-09T07:29:49.121Z,14.64
2019-03-09T07:31:23.415Z,14.72
2019-03-09T07:32:57.762Z,14.70
2019-03-09T07:34:32.090Z,14.85
2019-03-09T07:36:06.663Z,15.06
2019-03-09T07:37:40.860Z,15.17
2019-03-09T07:39:15.163Z,15.28
2019-03-09T07:40:49.492Z,15.36
2019-03-09T07:42:24.205Z,15.52
2019-03-09T07:43:58.493Z,15.70
2019-03-09T07:45:32.746Z,15.88
2019-03-09T07:47:06.992Z,16.05
2019-03-09T07:48:41.649Z,16.34
2019-03-09T07:50:17.509Z,16.60
2019-03-09T07:51:52.941Z,16.64
2019-03-09T07:53:27.221Z,16.82
2019-03-09T07:55:01.870Z,17.19
2019-03-09T07:56:37.648Z,17.48
2019-03-09T07:58:11.887Z,17.69
2019-03-09T07:59:46.118Z,17.84
2019-03-09T08:01:20.835Z,17.91
2019-03-09T08:02:55.202Z,17.93
2019-03-09T08:04:29.526Z,18.07
2019-03-09T08:06:03.740Z,18.30
2019-03-09T08:07:38.390Z,18.58
2019-03-09T08:09:12.852Z,18.98
2019-03-09T08:10:47.120Z,19.48
2019-03-09T08:12:21.408Z,20.01
2019-03-09T08:13:55.858Z,20.43
2019-03-09T08:15:30.108Z,20.80
2019-03-09T08:17:05.015Z,20.96
2019-03-09T08:18:39.272Z,21.27
2019-03-09T08:20:16.255Z,21.58
2019-03-09T08:21:50.553Z,22.02
2019-03-09T08:23:24.792Z,22.21
2019-03-09T08:24:59.075Z,22.72
2019-03-09T08:26:33.522Z,23.20
2019-03-09T08:28:07.809Z,23.35
2019-03-09T08:29:42.054Z,23.33
2019-03-09T08:31:16.289Z,23.60
2019-03-09T08:32:50.783Z,24.13
2019-03-09T08:34:25.113Z,24.29
2019-03-09T08:36:00.426Z,24.68
2019-03-09T08:37:34.784Z,24.87
2019-03-09T08:39:09.217Z,24.84
2019-03-09T08:40:43.554Z,24.61
2019-03-09T08:42:17.833Z,24.92
2019-03-09T08:43:52.165Z,25.43
2019-03-09T08:45:26.577Z,25.69
2019-03-09T08:47:00.856Z,25.89
2019-03-09T08:48:35.108Z,26.18
2019-03-09T08:50:12.445Z,26.41
2019-03-09T08:51:46.861Z,26.49
2019-03-09T08:53:21.123Z,26.61
2019-03-09T08:54:55.415Z,26.84
2019-03-09T08:56:29.659Z,26.90
2019-03-09T08:58:04.240Z,26.56
2019-03-09T08:59:38.571Z,26.59
2019-03-09T09:01:12.815Z,25.91
2019-03-09T09:02:47.059Z,25.44
2019-03-09T09:04:21.425Z,25.17
2019-03-09T09:05:55.648Z,24.79
2019-03-09T09:07:29.919Z,24.54
2019-03-09T09:09:05.955Z,24.45
2019-03-09T09:10:40.467Z,24.06
2019-03-09T09:12:14.764Z,23.95
2019-03-09T09:13:49.030Z,24.09
2019-03-09T09:15:23.248Z,24.56
2019-03-09T09:16:57.575Z,25.00
2019-03-09T09:18:31.889Z,25.28
2019-03-09T09:20:09.484Z,25.41
2019-03-09T09:21:43.767Z,25.60
2019-03-09T09:23:18.430Z,26.19
2019-03-09T09:24:52.672Z,26.37
2019-03-09T09:26:26.923Z,26.70
2019-03-09T09:28:01.189Z,26.97
2019-03-09T09:29:35.491Z,27.11
2019-03-09T09:31:09.700Z,27.16
2019-03-09T09:32:44.068Z,27.32
2019-03-09T09:34:18.282Z,27.72
2019-03-09T09:35:52.625Z,27.36
2019-03-09T09:37:26.900Z,26.93
2019-03-09T09:39:01.172Z,25.94
2019-03-09T09:40:35.450Z,25.24
2019-03-09T09:42:09.829Z,24.58
2019-03-09T09:43:44.067Z,24.30
2019-03-09T09:45:18.267Z,24.27
2019-03-09T09:46:52.476Z,24.21
2019-03-09T09:48:26.824Z,24.19
2019-03-09T09:50:01.101Z,23.91
2019-03-09T09:51:35.332Z,23.59
2019-03-09T09:53:09.635Z,23.48
2019-03-09T09:54:44.970Z,23.43
2019-03-09T09:56:19.974Z,23.12
2019-03-09T09:57:55.573Z,22.76
2019-03-09T09:59:29.922Z,22.60
2019-03-09T10:01:06.595Z,22.36
2019-03-09T10:02:42.283Z,21.91
2019-03-09T10:04:16.496Z,21.91
2019-03-09T10:05:51.833Z,21.81
2019-03-09T10:07:30.274Z,21.54
2019-03-09T10:09:06.503Z,21.25
2019-03-09T10:10:42.521Z,21.05
2019-03-09T10:12:19.748Z,21.06
2019-03-09T10:13:56.333Z,21.13
2019-03-09T10:15:35.076Z,21.33
2019-03-09T10:17:10.918Z,21.55
2019-03-09T10:18:46.710Z,21.68
2019-03-09T10:20:25.322Z,22.09
2019-03-09T10:21:59.633Z,22.11
2019-03-09T10:23:35.443Z,22.17
2019-03-09T10:25:11.003Z,22.25
2019-03-09T10:26:48.057Z,22.53
2019-03-09T10:28:24.122Z,22.68
2019-03-09T10:29:58.365Z,22.57
2019-03-09T10:31:32.673Z,22.71
2019-03-09T10:33:08.380Z,22.95
2019-03-09T10:34:42.630Z,23.14
2019-03-09T10:36:18.233Z,23.17
2019-03-09T10:37:52.456Z,22.99
2019-03-09T10:39:26.954Z,22.75
2019-03-09T10:41:01.182Z,22.68
2019-03-09T10:42:35.438Z,22.65
2019-03-09T10:44:09.697Z,22.76
2019-03-09T10:45:44.530Z,22.82
2019-03-09T10:47:18.875Z,22.92
2019-03-09T10:48:53.114Z,22.93
2019-03-09T10:50:28.816Z,22.88
2019-03-09T10:52:03.466Z,22.80
2019-03-09T10:53:37.722Z,22.83
2019-03-09T10:55:14.678Z,22.95
2019-03-09T10:56:49.005Z,22.99
2019-03-09T10:58:23.570Z,22.95
2019-03-09T10:59:57.903Z,22.85
2019-03-09T11:01:32.176Z,22.85
2019-03-09T11:03:06.459Z,22.73
2019-03-09T11:04:41.136Z,22.74
2019-03-09T11:06:15.446Z,22.78
2019-03-09T11:07:49.664Z,22.92
2019-03-09T11:09:23.857Z,23.02
2019-03-09T11:10:58.254Z,22.99
2019-03-09T11:12:33.278Z,22.94
2019-03-09T11:14:07.475Z,22.86
2019-03-09T11:15:41.692Z,22.73
2019-03-09T11:17:16.071Z,22.59
2019-03-09T11:18:51.873Z,22.51
2019-03-09T11:20:26.146Z,22.55
2019-03-09T11:22:00.406Z,22.52
2019-03-09T11:23:35.142Z,22.70
2019-03-09T11:25:10.142Z,22.89
2019-03-09T11:26:44.410Z,22.92
2019-03-09T11:28:20.246Z,22.92
2019-03-09T11:29:54.828Z,22.95
2019-03-09T11:31:30.559Z,22.87
2019-03-09T11:33:07.286Z,22.83
2019-03-09T11:34:41.593Z,22.80
2019-03-09T11:36:17.428Z,22.66
2019-03-09T11:37:51.710Z,22.74
2019-03-09T11:39:25.987Z,22.77
2019-03-09T11:41:00.928Z,22.83
2019-03-09T11:42:35.612Z,22.70
2019-03-09T11:44:10.874Z,22.53
2019-03-09T11:45:45.092Z,22.64
2019-03-09T11:47:20.527Z,22.81
2019-03-09T11:49:00.264Z,22.92
2019-03-09T11:50:34.701Z,23.01
2019-03-09T11:52:16.340Z,23.12
2019-03-09T11:53:44.836Z,23.23
2019-03-09T11:55:19.372Z,23.29
2019-03-09T11:56:53.581Z,23.32
2019-03-09T11:58:27.816Z,23.35
2019-03-09T12:00:02.835Z,23.29
2019-03-09T12:01:37.154Z,23.27
2019-03-09T12:03:11.672Z,23.05
2019-03-09T12:04:47.232Z,23.03
2019-03-09T12:06:21.837Z,23.16
2019-03-09T12:07:56.302Z,23.20
2019-03-09T12:09:30.576Z,23.23
2019-03-09T12:11:04.932Z,23.10
2019-03-09T12:12:39.257Z,23.14
2019-03-09T12:14:13.749Z,23.23
2019-03-09T12:15:47.961Z,23.24
2019-03-09T12:17:22.317Z,23.31
2019-03-09T12:18:56.545Z,23.15
2019-03-09T12:20:32.444Z,23.04
2019-03-09T12:22:06.739Z,22.87
2019-03-09T12:23:40.965Z,22.89
2019-03-09T12:25:16.685Z,22.88
2019-03-09T12:26:53.651Z,22.86
2019-03-09T12:28:27.941Z,22.84
2019-03-09T12:30:03.952Z,22.79
2019-03-09T12:31:38.341Z,22.81
2019-03-09T12:33:12.859Z,22.88
2019-03-09T12:34:47.085Z,23.00
2019-03-09T12:36:21.331Z,23.02
2019-03-09T12:37:56.300Z,22.97
2019-03-09T12:39:31.113Z,22.89
2019-03-09T12:41:05.334Z,22.97
2019-03-09T12:42:39.642Z,22.98
2019-03-09T12:44:13.913Z,22.88
2019-03-09T12:45:50.025Z,22.85
2019-03-09T12:47:24.822Z,22.78
2019-03-09T12:49:00.502Z,22.77
2019-03-09T12:50:34.711Z,22.73
2019-03-09T12:52:16.774Z,22.76
2019-03-09T12:53:51.030Z,22.71
2019-03-09T12:55:25.228Z,22.73
2019-03-09T12:56:59.437Z,22.75
2019-03-09T12:58:34.302Z,22.68
2019-03-09T13:00:19.000Z,22.67
2019-03-09T13:01:53.310Z,22.69
2019-03-09T13:03:29.530Z,22.61
2019-03-09T13:05:04.675Z,22.63
2019-03-09T13:06:38.934Z,22.52
2019-03-09T13:08:13.445Z,22.62
2019-03-09T13:09:47.628Z,22.69
2019-03-09T13:11:22.121Z,22.78
2019-03-09T13:12:56.349Z,22.84
2019-03-09T13:14:30.703Z,22.83
2019-03-09T13:16:05.014Z,22.85
2019-03-09T13:17:39.576Z,22.81
2019-03-09T13:19:13.847Z,22.81
2019-03-09T13:20:49.707Z,22.64
2019-03-09T13:22:24.002Z,22.53
2019-03-09T13:23:58.661Z,22.29
2019-03-09T13:25:32.882Z,22.16
2019-03-09T13:27:07.138Z,22.09
2019-03-09T13:28:41.451Z,22.08
2019-03-09T13:30:24.193Z,22.08
2019-03-09T13:31:58.462Z,22.09
2019-03-09T13:33:32.677Z,22.06
2019-03-09T13:35:07.959Z,22.07
2019-03-09T13:36:42.664Z,22.05
2019-03-09T13:38:16.960Z,21.97
2019-03-09T13:39:51.346Z,21.90
2019-03-09T13:41:25.688Z,21.82
2019-03-09T13:43:00.230Z,21.73
2019-03-09T13:44:34.431Z,21.63
2019-03-09T13:46:08.654Z,21.57
2019-03-09T13:47:42.873Z,21.41
2019-03-09T13:49:17.667Z,21.33
2019-03-09T13:50:51.985Z,21.29
2019-03-09T13:52:26.302Z,21.30
2019-03-09T13:54:01.016Z,21.33
2019-03-09T13:55:35.636Z,21.30
2019-03-09T13:57:09.988Z,21.31
2019-03-09T13:58:44.168Z,21.28
2019-03-09T14:00:19.490Z,21.29
2019-03-09T14:01:54.213Z,21.30
2019-03-09T14:03:28.409Z,21.22
2019-03-09T14:05:02.691Z,21.19
2019-03-09T14:06:36.931Z,21.26
2019-03-09T14:08:11.747Z,21.28
2019-03-09T14:09:45.971Z,21.23
2019-03-09T14:11:20.160Z,21.20
2019-03-09T14:12:54.382Z,21.19
2019-03-09T14:14:28.899Z,21.12
2019-03-09T14:16:03.115Z,21.09
2019-03-09T14:17:37.328Z,21.01
2019-03-09T14:19:11.618Z,20.93
2019-03-09T14:20:48.353Z,20.88
2019-03-09T14:22:23.078Z,20.82
2019-03-09T14:23:57.317Z,20.80
2019-03-09T14:25:31.608Z,20.76
2019-03-09T14:27:06.150Z,20.70
2019-03-09T14:28:40.372Z,20.71
2019-03-09T14:30:19.914Z,20.73
2019-03-09T14:31:54.132Z,20.69
2019-03-09T14:33:29.044Z,20.64
2019-03-09T14:35:04.234Z,20.61
2019-03-09T14:36:38.551Z,20.68
2019-03-09T14:38:12.745Z,20.71
2019-03-09T14:39:47.812Z,20.75
2019-03-09T14:41:22.057Z,20.75
2019-03-09T14:42:56.374Z,20.75
2019-03-09T14:44:30.589Z,20.74
2019-03-09T14:46:04.921Z,20.72
2019-03-09T14:47:39.263Z,20.71
2019-03-09T14:49:13.616Z,20.70
2019-03-09T14:50:49.072Z,20.70
2019-03-09T14:52:23.720Z,20.70
2019-03-09T14:53:57.961Z,20.69
2019-03-09T14:55:32.719Z,20.73
2019-03-09T14:57:07.047Z,20.72
2019-03-09T14:58:41.708Z,20.70
2019-03-09T15:00:21.481Z,20.65
2019-03-09T15:01:55.706Z,20.61
2019-03-09T15:03:29.958Z,20.64
2019-03-09T15:05:05.920Z,20.54
2019-03-09T15:06:40.132Z,20.56
2019-03-09T15:08:14.389Z,20.54
2019-03-09T15:09:48.686Z,20.49
2019-03-09T15:11:23.238Z,20.45
2019-03-09T15:12:57.534Z,20.42
2019-03-09T15:14:31.840Z,20.40
2019-03-09T15:16:06.091Z,20.34
2019-03-09T15:17:40.588Z,20.37
2019-03-09T15:19:14.937Z,20.37
2019-03-09T15:20:50.649Z,20.35
2019-03-09T15:22:24.844Z,20.30
2019-03-09T15:23:59.347Z,20.27
2019-03-09T15:25:33.642Z,20.22
2019-03-09T15:27:08.466Z,20.21
2019-03-09T15:28:42.710Z,20.17
2019-03-09T15:30:21.625Z,20.13
2019-03-09T15:31:55.941Z,20.07
2019-03-09T15:33:30.184Z,20.02
2019-03-09T15:35:06.233Z,19.97
2019-03-09T15:36:40.630Z,19.92
2019-03-09T15:38:15.355Z,19.83
2019-03-09T15:39:49.675Z,19.77
2019-03-09T15:41:23.944Z,19.71
2019-03-09T15:42:58.657Z,19.64
2019-03-09T15:44:32.941Z,19.58
2019-03-09T15:46:07.147Z,19.52
2019-03-09T15:47:41.521Z,19.45
2019-03-09T15:49:16.114Z,19.41
2019-03-09T15:50:50.346Z,19.38
2019-03-09T15:52:24.654Z,19.33
2019-03-09T15:53:58.998Z,19.30
2019-03-09T15:55:33.323Z,19.24
2019-03-09T15:57:07.676Z,19.18
2019-03-09T15:58:42.286Z,19.14
2019-03-09T16:00:21.744Z,19.07
2019-03-09T16:01:56.475Z,18.99
2019-03-09T16:03:30.788Z,18.91
2019-03-09T16:05:08.183Z,18.82
2019-03-09T16:06:42.484Z,18.70
2019-03-09T16:08:16.995Z,18.59
2019-03-09T16:09:51.193Z,18.50
2019-03-09T16:11:25.499Z,18.41
2019-03-09T16:12:59.818Z,18.30
2019-03-09T16:14:34.827Z,18.23
2019-03-09T16:16:09.107Z,18.13
2019-03-09T16:17:43.394Z,18.04
2019-03-09T16:19:19.596Z,17.95
2019-03-09T16:20:53.823Z,17.88
2019-03-09T16:22:28.093Z,17.80
2019-03-09T16:24:02.334Z,17.76
2019-03-09T16:25:36.616Z,17.70
2019-03-09T16:27:11.250Z,17.64
2019-03-09T16:28:45.506Z,17.59
2019-03-09T16:30:23.701Z,17.53
2019-03-09T16:31:58.002Z,17.48
2019-03-09T16:33:32.483Z,17.42
2019-03-09T16:35:08.232Z,17.36
2019-03-09T16:36:42.450Z,17.30
2019-03-09T16:38:16.738Z,17.25
2019-03-09T16:39:51.360Z,17.28
2019-03-09T16:41:25.602Z,17.34
2019-03-09T16:42:59.855Z,17.33
2019-03-09T16:44:34.111Z,17.32
2019-03-09T16:46:08.615Z,17.29
2019-03-09T16:47:42.869Z,17.24
2019-03-09T16:49:17.169Z,17.18
2019-03-09T16:50:51.464Z,17.12
2019-03-09T16:52:26.171Z,17.05
2019-03-09T16:54:00.390Z,16.99
2019-03-09T16:55:34.685Z,16.97
2019-03-09T16:57:08.932Z,16.92
2019-03-09T16:58:43.536Z,16.89
2019-03-09T17:00:21.808Z,16.86
2019-03-09T17:01:56.016Z,16.83
2019-03-09T17:03:30.303Z,16.80
2019-03-09T17:05:06.092Z,16.78
2019-03-09T17:06:40.392Z,16.78
2019-03-09T17:08:14.743Z,16.80
2019-03-09T17:09:49.031Z,16.86
2019-03-09T17:11:23.448Z,16.85
2019-03-09T17:12:57.676Z,16.79
2019-03-09T17:14:31.913Z,16.75
2019-03-09T17:16:06.628Z,16.70
2019-03-09T17:17:41.086Z,16.62
2019-03-09T17:19:15.379Z,16.56
2019-03-09T17:20:51.243Z,16.47
2019-03-09T17:22:32.603Z,16.39
2019-03-09T17:24:01.663Z,16.32
2019-03-09T17:25:35.889Z,16.25
2019-03-09T17:27:10.122Z,16.20
2019-03-09T17:28:44.344Z,16.15
2019-03-09T17:30:20.076Z,16.09
2019-03-09T17:31:54.663Z,16.03
2019-03-09T17:33:28.909Z,15.96
2019-03-09T17:35:03.204Z,15.90
2019-03-09T17:36:37.930Z,15.82
2019-03-09T17:38:12.160Z,15.76
2019-03-09T17:39:46.461Z,15.69
2019-03-09T17:41:20.745Z,15.63
2019-03-09T17:42:55.460Z,15.57
2019-03-09T17:44:29.692Z,15.50
2019-03-09T17:46:04.011Z,15.42
2019-03-09T17:47:38.737Z,15.35
2019-03-09T17:49:13.175Z,15.30
2019-03-09T17:50:47.472Z,15.24
2019-03-09T17:52:21.760Z,15.20
2019-03-09T17:53:56.036Z,15.13
2019-03-09T17:55:30.706Z,15.07
2019-03-09T17:57:05.435Z,15.01
2019-03-09T17:58:39.677Z,14.96
2019-03-09T18:00:25.467Z,14.89
2019-03-09T18:02:00.341Z,14.81
2019-03-09T18:03:35.273Z,14.78
2019-03-09T18:05:11.250Z,14.73
2019-03-09T18:06:45.520Z,14.69
2019-03-09T18:08:20.051Z,14.67
2019-03-09T18:09:54.338Z,14.63
2019-03-09T18:11:28.689Z,14.57
2019-03-09T18:13:03.004Z,14.49
2019-03-09T18:14:37.352Z,14.40
2019-03-09T18:16:11.670Z,14.31
2019-03-09T18:17:47.457Z,14.23
2019-03-09T18:19:21.818Z,14.15
2019-03-09T18:20:56.158Z,14.09
2019-03-09T18:22:30.468Z,14.01
2019-03-09T18:24:04.679Z,13.90
2019-03-09T18:25:39.029Z,13.81
2019-03-09T18:27:13.945Z,13.75
2019-03-09T18:28:48.217Z,13.66
2019-03-09T18:30:22.533Z,13.57
2019-03-09T18:31:56.852Z,13.53
2019-03-09T18:33:31.343Z,13.50
2019-03-09T18:35:07.973Z,13.47
2019-03-09T18:36:42.270Z,13.44
2019-03-09T18:38:16.597Z,13.44
2019-03-09T18:39:50.934Z,13.42
2019-03-09T18:41:25.149Z,13.41
2019-03-09T18:42:59.473Z,13.40
2019-03-09T18:44:33.728Z,13.37
2019-03-09T18:46:08.315Z,13.36
2019-03-09T18:47:42.498Z,13.35
2019-03-09T18:49:20.490Z,13.29
2019-03-09T18:50:54.700Z,13.24
2019-03-09T18:52:29.419Z,13.14
2019-03-09T18:54:03.774Z,13.00
2019-03-09T18:55:39.446Z,12.94
2019-03-09T18:57:13.770Z,12.89
2019-03-09T18:58:48.325Z,12.86
2019-03-09T19:00:23.020Z,12.83
2019-03-09T19:01:57.298Z,12.79
2019-03-09T19:03:31.586Z,12.76
2019-03-09T19:05:06.583Z,12.73
2019-03-09T19:06:40.951Z,12.68
2019-03-09T19:08:15.160Z,12.70
2019-03-09T19:09:49.519Z,12.69
2019-03-09T19:11:24.037Z,12.68
2019-03-09T19:12:58.367Z,12.66
2019-03-09T19:14:32.667Z,12.65
2019-03-09T19:16:06.963Z,12.64
2019-03-09T19:17:44.447Z,12.63
2019-03-09T19:19:18.718Z,12.59
2019-03-09T19:20:53.374Z,12.54
2019-03-09T19:22:27.607Z,12.47
2019-03-09T19:24:02.108Z,12.42
2019-03-09T19:25:36.398Z,12.39
2019-03-09T19:27:10.635Z,12.35
2019-03-09T19:28:44.918Z,12.32
2019-03-09T19:30:21.080Z,12.31
2019-03-09T19:31:55.402Z,12.30
2019-03-09T19:33:29.666Z,12.29
2019-03-09T19:35:04.467Z,12.23
2019-03-09T19:36:39.447Z,12.17
2019-03-09T19:38:13.645Z,12.13
2019-03-09T19:39:47.943Z,12.11
2019-03-09T19:41:22.502Z,12.08
2019-03-09T19:42:57.068Z,12.04
2019-03-09T19:44:31.349Z,12.04
2019-03-09T19:46:05.689Z,12.06
2019-03-09T19:47:39.990Z,12.03
2019-03-09T19:49:14.389Z,12.02
2019-03-09T19:50:48.667Z,12.01
2019-03-09T19:52:23.007Z,12.02
2019-03-09T19:53:57.268Z,12.02
2019-03-09T19:55:31.997Z,12.05
2019-03-09T19:57:06.322Z,12.03
2019-03-09T19:58:40.626Z,11.99
2019-03-09T20:00:16.489Z,12.00
2019-03-09T20:01:51.329Z,12.01
2019-03-09T20:03:25.620Z,12.00
2019-03-09T20:04:59.850Z,11.97
2019-03-09T20:06:34.196Z,11.97
2019-03-09T20:08:08.953Z,11.98
2019-03-09T20:09:43.184Z,11.96
2019-03-09T20:11:17.491Z,11.91
2019-03-09T20:12:51.785Z,11.89
2019-03-09T20:14:26.404Z,11.84
2019-03-09T20:16:00.640Z,11.90
2019-03-09T20:17:34.892Z,11.92
2019-03-09T20:19:09.133Z,11.94
2019-03-09T20:20:43.662Z,11.94
2019-03-09T20:22:17.899Z,11.95
2019-03-09T20:23:52.114Z,11.97
2019-03-09T20:25:28.408Z,11.97
2019-03-09T20:27:02.740Z,12.01
2019-03-09T20:28:37.030Z,12.03
2019-03-09T20:30:19.347Z,12.03
2019-03-09T20:31:53.578Z,11.99
2019-03-09T20:33:28.106Z,11.99
2019-03-09T20:35:02.424Z,12.01